sensor_id;sensor_type;location;lat;lon;timestamp;P1;durP1;ratioP1;P2;durP2;ratioP2
16612;SDS011;8419;52.358;9.752;2022-08-19T00:02:41;6.65;;;5.45;;
16612;SDS011;8419;52.358;9.752;2022-08-19T00:05:26;9.75;;;5.22;;
16612;SDS011;8419;52.358;9.752;2022-08-19T00:08:12;7.15;;;4.97;;
16612;SDS011;8419;52.358;9.752;2022-08-19T00:10:58;9.55;;;5.05;;
16612;SDS011;8419;52.358;9.752;2022-08-19T00:13:43;8.57;;;5.07;;
16612;SDS011;8419;52.358;9.752;2022-08-19T00:16:30;9.15;;;5.32;;
16612;SDS011;8419;52.358;9.752;2022-08-19T00:19:16;7.40;;;4.78;;
16612;SDS011;8419;52.358;9.752;2022-08-19T00:22:01;5.47;;;4.72;;
16612;SDS011;8419;52.358;9.752;2022-08-19T00:24:48;10.43;;;5.00;;
16612;SDS011;8419;52.358;9.752;2022-08-19T00:27:33;6.28;;;3.62;;
16612;SDS011;8419;52.358;9.752;2022-08-19T00:30:19;4.22;;;3.78;;
16612;SDS011;8419;52.358;9.752;2022-08-19T00:33:04;6.95;;;4.82;;
16612;SDS011;8419;52.358;9.752;2022-08-19T00:35:50;10.18;;;5.40;;
16612;SDS011;8419;52.358;9.752;2022-08-19T00:38:37;6.12;;;4.75;;
16612;SDS011;8419;52.358;9.752;2022-08-19T00:41:25;7.93;;;4.75;;
16612;SDS011;8419;52.358;9.752;2022-08-19T00:44:13;6.72;;;4.95;;
16612;SDS011;8419;52.358;9.752;2022-08-19T00:47:00;5.20;;;4.70;;
16612;SDS011;8419;52.358;9.752;2022-08-19T00:49:47;6.47;;;5.30;;
16612;SDS011;8419;52.358;9.752;2022-08-19T00:52:36;6.72;;;5.30;;
16612;SDS011;8419;52.358;9.752;2022-08-19T00:55:25;8.85;;;5.40;;
16612;SDS011;8419;52.358;9.752;2022-08-19T00:58:14;7.32;;;4.28;;
16612;SDS011;8419;52.358;9.752;2022-08-19T01:01:02;8.63;;;4.80;;
16612;SDS011;8419;52.358;9.752;2022-08-19T01:03:48;6.05;;;4.20;;
16612;SDS011;8419;52.358;9.752;2022-08-19T01:06:33;7.30;;;4.85;;
16612;SDS011;8419;52.358;9.752;2022-08-19T01:09:21;3.92;;;3.42;;
16612;SDS011;8419;52.358;9.752;2022-08-19T01:12:07;7.20;;;5.30;;
16612;SDS011;8419;52.358;9.752;2022-08-19T01:14:53;5.93;;;3.72;;
16612;SDS011;8419;52.358;9.752;2022-08-19T01:17:40;9.10;;;5.25;;
16612;SDS011;8419;52.358;9.752;2022-08-19T01:20:27;8.48;;;4.22;;
16612;SDS011;8419;52.358;9.752;2022-08-19T01:23:13;6.10;;;4.03;;
16612;SDS011;8419;52.358;9.752;2022-08-19T01:25:59;7.05;;;4.20;;
16612;SDS011;8419;52.358;9.752;2022-08-19T01:28:45;8.55;;;5.72;;
16612;SDS011;8419;52.358;9.752;2022-08-19T01:31:33;10.90;;;5.60;;
16612;SDS011;8419;52.358;9.752;2022-08-19T01:34:20;7.40;;;5.40;;
16612;SDS011;8419;52.358;9.752;2022-08-19T01:37:07;7.65;;;5.78;;
16612;SDS011;8419;52.358;9.752;2022-08-19T01:39:55;7.97;;;5.85;;
16612;SDS011;8419;52.358;9.752;2022-08-19T01:42:40;7.72;;;5.70;;
16612;SDS011;8419;52.358;9.752;2022-08-19T01:45:27;9.18;;;6.15;;
16612;SDS011;8419;52.358;9.752;2022-08-19T01:48:14;7.22;;;5.82;;
16612;SDS011;8419;52.358;9.752;2022-08-19T01:50:59;10.25;;;6.05;;
16612;SDS011;8419;52.358;9.752;2022-08-19T01:53:47;10.02;;;6.40;;
16612;SDS011;8419;52.358;9.752;2022-08-19T01:56:32;10.85;;;6.78;;
16612;SDS011;8419;52.358;9.752;2022-08-19T01:59:19;8.93;;;6.22;;
16612;SDS011;8419;52.358;9.752;2022-08-19T02:02:06;11.05;;;6.80;;
16612;SDS011;8419;52.358;9.752;2022-08-19T02:04:52;9.15;;;6.12;;
16612;SDS011;8419;52.358;9.752;2022-08-19T02:07:39;10.82;;;6.03;;
16612;SDS011;8419;52.358;9.752;2022-08-19T02:10:25;7.72;;;5.70;;
16612;SDS011;8419;52.358;9.752;2022-08-19T02:13:11;8.88;;;6.60;;
16612;SDS011;8419;52.358;9.752;2022-08-19T02:15:57;8.07;;;5.97;;
16612;SDS011;8419;52.358;9.752;2022-08-19T02:18:42;10.55;;;6.43;;
16612;SDS011;8419;52.358;9.752;2022-08-19T02:21:28;9.18;;;5.43;;
16612;SDS011;8419;52.358;9.752;2022-08-19T02:24:15;10.85;;;6.22;;
16612;SDS011;8419;52.358;9.752;2022-08-19T02:27:00;10.20;;;5.82;;
16612;SDS011;8419;52.358;9.752;2022-08-19T02:29:45;12.93;;;6.75;;
16612;SDS011;8419;52.358;9.752;2022-08-19T02:32:31;9.27;;;5.93;;
16612;SDS011;8419;52.358;9.752;2022-08-19T02:35:17;7.97;;;5.72;;
16612;SDS011;8419;52.358;9.752;2022-08-19T02:38:03;11.95;;;6.47;;
16612;SDS011;8419;52.358;9.752;2022-08-19T02:41:11;8.23;;;5.20;;
16612;SDS011;8419;52.358;9.752;2022-08-19T02:44:00;7.03;;;4.85;;
16612;SDS011;8419;52.358;9.752;2022-08-19T02:46:48;9.75;;;5.65;;
16612;SDS011;8419;52.358;9.752;2022-08-19T02:49:34;11.70;;;5.97;;
16612;SDS011;8419;52.358;9.752;2022-08-19T02:52:19;8.43;;;5.37;;
16612;SDS011;8419;52.358;9.752;2022-08-19T02:55:08;7.40;;;5.55;;
16612;SDS011;8419;52.358;9.752;2022-08-19T02:57:53;7.95;;;5.37;;
16612;SDS011;8419;52.358;9.752;2022-08-19T03:00:43;6.55;;;4.53;;
16612;SDS011;8419;52.358;9.752;2022-08-19T03:03:29;7.68;;;5.32;;
16612;SDS011;8419;52.358;9.752;2022-08-19T03:06:16;8.32;;;5.53;;
16612;SDS011;8419;52.358;9.752;2022-08-19T03:09:02;8.57;;;5.45;;
16612;SDS011;8419;52.358;9.752;2022-08-19T03:11:47;8.65;;;5.97;;
16612;SDS011;8419;52.358;9.752;2022-08-19T03:14:33;10.68;;;5.55;;
16612;SDS011;8419;52.358;9.752;2022-08-19T03:17:19;9.60;;;5.07;;
16612;SDS011;8419;52.358;9.752;2022-08-19T03:20:05;9.65;;;5.55;;
16612;SDS011;8419;52.358;9.752;2022-08-19T03:22:51;9.63;;;5.60;;
16612;SDS011;8419;52.358;9.752;2022-08-19T03:25:38;9.38;;;5.80;;
16612;SDS011;8419;52.358;9.752;2022-08-19T03:28:27;8.02;;;5.12;;
16612;SDS011;8419;52.358;9.752;2022-08-19T03:31:13;7.37;;;5.57;;
16612;SDS011;8419;52.358;9.752;2022-08-19T03:33:58;7.95;;;5.75;;
16612;SDS011;8419;52.358;9.752;2022-08-19T03:36:44;7.05;;;5.22;;
16612;SDS011;8419;52.358;9.752;2022-08-19T03:39:30;8.82;;;5.90;;
16612;SDS011;8419;52.358;9.752;2022-08-19T03:42:15;9.35;;;5.50;;
16612;SDS011;8419;52.358;9.752;2022-08-19T03:45:01;6.15;;;4.72;;
16612;SDS011;8419;52.358;9.752;2022-08-19T03:47:47;5.97;;;4.65;;
16612;SDS011;8419;52.358;9.752;2022-08-19T03:50:32;8.10;;;5.35;;
16612;SDS011;8419;52.358;9.752;2022-08-19T03:53:22;8.65;;;5.80;;
16612;SDS011;8419;52.358;9.752;2022-08-19T03:56:08;6.80;;;4.57;;
16612;SDS011;8419;52.358;9.752;2022-08-19T03:58:54;8.07;;;5.65;;
16612;SDS011;8419;52.358;9.752;2022-08-19T04:01:40;6.65;;;5.03;;
16612;SDS011;8419;52.358;9.752;2022-08-19T04:04:26;9.18;;;5.45;;
16612;SDS011;8419;52.358;9.752;2022-08-19T04:07:13;7.12;;;5.10;;
16612;SDS011;8419;52.358;9.752;2022-08-19T04:10:00;8.73;;;5.03;;
16612;SDS011;8419;52.358;9.752;2022-08-19T04:12:45;8.48;;;5.55;;
16612;SDS011;8419;52.358;9.752;2022-08-19T04:15:31;8.00;;;5.37;;
16612;SDS011;8419;52.358;9.752;2022-08-19T04:18:20;8.10;;;5.12;;
16612;SDS011;8419;52.358;9.752;2022-08-19T04:21:05;8.77;;;5.32;;
16612;SDS011;8419;52.358;9.752;2022-08-19T04:23:52;9.52;;;5.35;;
16612;SDS011;8419;52.358;9.752;2022-08-19T04:26:38;9.57;;;6.20;;
16612;SDS011;8419;52.358;9.752;2022-08-19T04:29:24;8.02;;;5.12;;
16612;SDS011;8419;52.358;9.752;2022-08-19T04:32:11;11.95;;;6.00;;
16612;SDS011;8419;52.358;9.752;2022-08-19T04:34:59;7.60;;;5.37;;
16612;SDS011;8419;52.358;9.752;2022-08-19T04:37:44;7.72;;;5.55;;
16612;SDS011;8419;52.358;9.752;2022-08-19T04:40:30;9.48;;;5.97;;
16612;SDS011;8419;52.358;9.752;2022-08-19T04:43:44;8.48;;;6.07;;
16612;SDS011;8419;52.358;9.752;2022-08-19T04:46:33;9.13;;;5.20;;
16612;SDS011;8419;52.358;9.752;2022-08-19T04:49:19;10.82;;;5.20;;
16612;SDS011;8419;52.358;9.752;2022-08-19T04:52:06;8.85;;;5.30;;
16612;SDS011;8419;52.358;9.752;2022-08-19T04:54:53;9.50;;;5.65;;
16612;SDS011;8419;52.358;9.752;2022-08-19T04:57:39;6.57;;;5.28;;
16612;SDS011;8419;52.358;9.752;2022-08-19T05:00:25;10.30;;;5.93;;
16612;SDS011;8419;52.358;9.752;2022-08-19T05:03:10;7.70;;;5.07;;
16612;SDS011;8419;52.358;9.752;2022-08-19T05:05:55;7.20;;;5.65;;
16612;SDS011;8419;52.358;9.752;2022-08-19T05:08:42;6.47;;;4.32;;
16612;SDS011;8419;52.358;9.752;2022-08-19T05:11:29;9.30;;;5.47;;
16612;SDS011;8419;52.358;9.752;2022-08-19T05:14:17;10.43;;;5.18;;
16612;SDS011;8419;52.358;9.752;2022-08-19T05:17:05;7.18;;;4.80;;
16612;SDS011;8419;52.358;9.752;2022-08-19T05:19:50;8.65;;;5.62;;
16612;SDS011;8419;52.358;9.752;2022-08-19T05:22:54;9.15;;;5.30;;
16612;SDS011;8419;52.358;9.752;2022-08-19T05:25:40;9.25;;;5.12;;
16612;SDS011;8419;52.358;9.752;2022-08-19T05:28:25;9.30;;;6.30;;
16612;SDS011;8419;52.358;9.752;2022-08-19T05:31:12;10.07;;;4.75;;
16612;SDS011;8419;52.358;9.752;2022-08-19T05:33:57;7.87;;;5.45;;
16612;SDS011;8419;52.358;9.752;2022-08-19T05:36:43;12.43;;;5.45;;
16612;SDS011;8419;52.358;9.752;2022-08-19T05:39:30;11.82;;;5.80;;
16612;SDS011;8419;52.358;9.752;2022-08-19T05:42:18;9.00;;;6.12;;
16612;SDS011;8419;52.358;9.752;2022-08-19T05:45:05;8.20;;;5.97;;
16612;SDS011;8419;52.358;9.752;2022-08-19T05:47:52;14.63;;;7.40;;
16612;SDS011;8419;52.358;9.752;2022-08-19T05:50:38;8.30;;;6.37;;
16612;SDS011;8419;52.358;9.752;2022-08-19T05:53:25;10.63;;;7.05;;
16612;SDS011;8419;52.358;9.752;2022-08-19T05:56:12;9.65;;;6.82;;
16612;SDS011;8419;52.358;9.752;2022-08-19T05:58:59;11.38;;;7.82;;
16612;SDS011;8419;52.358;9.752;2022-08-19T06:01:45;11.40;;;7.47;;
16612;SDS011;8419;52.358;9.752;2022-08-19T06:04:34;13.20;;;8.00;;
16612;SDS011;8419;52.358;9.752;2022-08-19T06:07:19;13.13;;;8.18;;
16612;SDS011;8419;52.358;9.752;2022-08-19T06:10:06;14.35;;;8.20;;
16612;SDS011;8419;52.358;9.752;2022-08-19T06:12:55;14.25;;;8.52;;
16612;SDS011;8419;52.358;9.752;2022-08-19T06:15:41;14.18;;;7.87;;
16612;SDS011;8419;52.358;9.752;2022-08-19T06:18:28;14.68;;;9.02;;
16612;SDS011;8419;52.358;9.752;2022-08-19T06:21:13;9.43;;;6.18;;
16612;SDS011;8419;52.358;9.752;2022-08-19T06:23:58;17.45;;;9.13;;
16612;SDS011;8419;52.358;9.752;2022-08-19T06:26:45;9.73;;;6.55;;
16612;SDS011;8419;52.358;9.752;2022-08-19T06:29:32;13.57;;;8.50;;
16612;SDS011;8419;52.358;9.752;2022-08-19T06:32:19;9.63;;;6.37;;
16612;SDS011;8419;52.358;9.752;2022-08-19T06:35:05;13.18;;;7.95;;
16612;SDS011;8419;52.358;9.752;2022-08-19T06:37:52;11.82;;;8.35;;
16612;SDS011;8419;52.358;9.752;2022-08-19T06:40:38;13.80;;;8.57;;
16612;SDS011;8419;52.358;9.752;2022-08-19T06:43:23;12.05;;;6.97;;
16612;SDS011;8419;52.358;9.752;2022-08-19T06:46:13;15.00;;;8.68;;
16612;SDS011;8419;52.358;9.752;2022-08-19T06:48:59;15.73;;;10.13;;
16612;SDS011;8419;52.358;9.752;2022-08-19T06:51:46;15.40;;;9.75;;
16612;SDS011;8419;52.358;9.752;2022-08-19T06:54:32;13.75;;;7.05;;
16612;SDS011;8419;52.358;9.752;2022-08-19T06:57:18;15.48;;;9.73;;
16612;SDS011;8419;52.358;9.752;2022-08-19T07:00:04;14.98;;;9.77;;
16612;SDS011;8419;52.358;9.752;2022-08-19T07:02:55;12.77;;;8.15;;
16612;SDS011;8419;52.358;9.752;2022-08-19T07:05:41;15.23;;;8.55;;
16612;SDS011;8419;52.358;9.752;2022-08-19T07:08:27;14.27;;;9.63;;
16612;SDS011;8419;52.358;9.752;2022-08-19T07:11:13;17.50;;;9.40;;
16612;SDS011;8419;52.358;9.752;2022-08-19T07:14:00;14.18;;;8.95;;
16612;SDS011;8419;52.358;9.752;2022-08-19T07:16:46;14.65;;;9.93;;
16612;SDS011;8419;52.358;9.752;2022-08-19T07:19:32;17.00;;;9.43;;
16612;SDS011;8419;52.358;9.752;2022-08-19T07:22:18;16.58;;;9.98;;
16612;SDS011;8419;52.358;9.752;2022-08-19T07:25:06;15.57;;;10.90;;
16612;SDS011;8419;52.358;9.752;2022-08-19T07:27:53;17.27;;;11.07;;
16612;SDS011;8419;52.358;9.752;2022-08-19T07:30:39;18.45;;;11.57;;
16612;SDS011;8419;52.358;9.752;2022-08-19T07:33:24;15.98;;;11.05;;
16612;SDS011;8419;52.358;9.752;2022-08-19T07:36:11;16.25;;;10.68;;
16612;SDS011;8419;52.358;9.752;2022-08-19T07:39:00;18.35;;;11.12;;
16612;SDS011;8419;52.358;9.752;2022-08-19T07:41:48;16.08;;;11.27;;
16612;SDS011;8419;52.358;9.752;2022-08-19T07:44:34;22.10;;;12.20;;
16612;SDS011;8419;52.358;9.752;2022-08-19T07:47:20;18.80;;;13.13;;
16612;SDS011;8419;52.358;9.752;2022-08-19T07:50:08;16.42;;;11.20;;
16612;SDS011;8419;52.358;9.752;2022-08-19T07:52:56;17.65;;;11.38;;
16612;SDS011;8419;52.358;9.752;2022-08-19T07:55:42;18.83;;;12.45;;
16612;SDS011;8419;52.358;9.752;2022-08-19T07:58:27;16.95;;;10.02;;
16612;SDS011;8419;52.358;9.752;2022-08-19T08:01:13;16.83;;;10.70;;
16612;SDS011;8419;52.358;9.752;2022-08-19T08:04:02;14.45;;;10.48;;
16612;SDS011;8419;52.358;9.752;2022-08-19T08:07:06;14.57;;;9.40;;
16612;SDS011;8419;52.358;9.752;2022-08-19T08:10:11;14.25;;;10.73;;
16612;SDS011;8419;52.358;9.752;2022-08-19T08:12:56;14.90;;;9.60;;
16612;SDS011;8419;52.358;9.752;2022-08-19T08:15:41;13.80;;;8.95;;
16612;SDS011;8419;52.358;9.752;2022-08-19T08:18:28;13.90;;;7.97;;
16612;SDS011;8419;52.358;9.752;2022-08-19T08:21:15;11.85;;;7.30;;
16612;SDS011;8419;52.358;9.752;2022-08-19T08:24:00;11.65;;;7.90;;
16612;SDS011;8419;52.358;9.752;2022-08-19T08:26:46;12.05;;;8.10;;
16612;SDS011;8419;52.358;9.752;2022-08-19T08:29:31;10.43;;;7.57;;
16612;SDS011;8419;52.358;9.752;2022-08-19T08:32:18;11.27;;;6.87;;
16612;SDS011;8419;52.358;9.752;2022-08-19T08:35:04;9.45;;;6.82;;
16612;SDS011;8419;52.358;9.752;2022-08-19T08:37:51;10.30;;;7.22;;
16612;SDS011;8419;52.358;9.752;2022-08-19T08:40:42;7.82;;;5.95;;
16612;SDS011;8419;52.358;9.752;2022-08-19T08:43:33;9.00;;;6.68;;
16612;SDS011;8419;52.358;9.752;2022-08-19T08:46:21;6.68;;;5.90;;
16612;SDS011;8419;52.358;9.752;2022-08-19T08:49:18;8.63;;;6.30;;
16612;SDS011;8419;52.358;9.752;2022-08-19T08:52:11;12.25;;;6.30;;
16612;SDS011;8419;52.358;9.752;2022-08-19T08:55:05;7.18;;;4.68;;
16612;SDS011;8419;52.358;9.752;2022-08-19T08:57:55;8.65;;;6.32;;
16612;SDS011;8419;52.358;9.752;2022-08-19T09:00:45;8.73;;;5.78;;
16612;SDS011;8419;52.358;9.752;2022-08-19T09:03:33;9.05;;;6.97;;
16612;SDS011;8419;52.358;9.752;2022-08-19T09:06:20;8.68;;;6.22;;
16612;SDS011;8419;52.358;9.752;2022-08-19T09:09:14;8.15;;;5.80;;
16612;SDS011;8419;52.358;9.752;2022-08-19T09:12:05;9.30;;;5.70;;
16612;SDS011;8419;52.358;9.752;2022-08-19T09:14:55;7.18;;;6.07;;
16612;SDS011;8419;52.358;9.752;2022-08-19T09:17:44;8.32;;;5.93;;
16612;SDS011;8419;52.358;9.752;2022-08-19T09:20:31;6.47;;;5.43;;
16612;SDS011;8419;52.358;9.752;2022-08-19T09:23:17;10.32;;;6.05;;
16612;SDS011;8419;52.358;9.752;2022-08-19T09:26:08;7.75;;;5.12;;
16612;SDS011;8419;52.358;9.752;2022-08-19T09:28:57;8.80;;;5.78;;
16612;SDS011;8419;52.358;9.752;2022-08-19T09:31:43;7.35;;;4.82;;
16612;SDS011;8419;52.358;9.752;2022-08-19T09:34:29;5.87;;;5.03;;
16612;SDS011;8419;52.358;9.752;2022-08-19T09:37:16;8.02;;;5.05;;
16612;SDS011;8419;52.358;9.752;2022-08-19T09:40:01;5.07;;;4.57;;
16612;SDS011;8419;52.358;9.752;2022-08-19T09:42:48;6.68;;;4.68;;
16612;SDS011;8419;52.358;9.752;2022-08-19T09:45:34;7.30;;;4.75;;
16612;SDS011;8419;52.358;9.752;2022-08-19T09:48:20;5.25;;;4.00;;
16612;SDS011;8419;52.358;9.752;2022-08-19T09:51:06;6.32;;;4.68;;
16612;SDS011;8419;52.358;9.752;2022-08-19T09:53:53;6.53;;;3.70;;
16612;SDS011;8419;52.358;9.752;2022-08-19T09:56:38;4.85;;;3.67;;
16612;SDS011;8419;52.358;9.752;2022-08-19T09:59:24;5.10;;;4.32;;
16612;SDS011;8419;52.358;9.752;2022-08-19T10:02:10;5.40;;;3.92;;
16612;SDS011;8419;52.358;9.752;2022-08-19T10:04:56;5.93;;;3.42;;
16612;SDS011;8419;52.358;9.752;2022-08-19T10:08:02;6.78;;;3.80;;
16612;SDS011;8419;52.358;9.752;2022-08-19T10:10:48;3.65;;;2.92;;
16612;SDS011;8419;52.358;9.752;2022-08-19T10:13:34;6.60;;;3.83;;
16612;SDS011;8419;52.358;9.752;2022-08-19T10:16:22;6.80;;;3.70;;
16612;SDS011;8419;52.358;9.752;2022-08-19T10:19:09;5.65;;;3.00;;
16612;SDS011;8419;52.358;9.752;2022-08-19T10:21:55;4.22;;;2.97;;
16612;SDS011;8419;52.358;9.752;2022-08-19T10:24:40;3.55;;;2.80;;
16612;SDS011;8419;52.358;9.752;2022-08-19T10:27:26;5.25;;;3.50;;
16612;SDS011;8419;52.358;9.752;2022-08-19T10:30:13;5.62;;;2.95;;
16612;SDS011;8419;52.358;9.752;2022-08-19T10:32:58;3.45;;;2.87;;
16612;SDS011;8419;52.358;9.752;2022-08-19T10:35:44;3.65;;;2.83;;
16612;SDS011;8419;52.358;9.752;2022-08-19T10:38:30;3.42;;;2.83;;
16612;SDS011;8419;52.358;9.752;2022-08-19T10:41:16;3.22;;;2.53;;
16612;SDS011;8419;52.358;9.752;2022-08-19T10:44:06;2.87;;;1.73;;
16612;SDS011;8419;52.358;9.752;2022-08-19T10:46:52;2.20;;;2.00;;
16612;SDS011;8419;52.358;9.752;2022-08-19T10:49:39;3.10;;;2.00;;
16612;SDS011;8419;52.358;9.752;2022-08-19T10:52:47;4.03;;;2.85;;
16612;SDS011;8419;52.358;9.752;2022-08-19T10:55:34;3.55;;;2.22;;
16612;SDS011;8419;52.358;9.752;2022-08-19T10:58:40;3.20;;;2.03;;
16612;SDS011;8419;52.358;9.752;2022-08-19T11:01:26;2.95;;;2.12;;
16612;SDS011;8419;52.358;9.752;2022-08-19T11:04:14;2.53;;;1.30;;
16612;SDS011;8419;52.358;9.752;2022-08-19T11:07:02;3.53;;;2.08;;
16612;SDS011;8419;52.358;9.752;2022-08-19T11:09:50;4.32;;;2.30;;
16612;SDS011;8419;52.358;9.752;2022-08-19T11:12:36;3.50;;;1.17;;
16612;SDS011;8419;52.358;9.752;2022-08-19T11:15:23;3.25;;;2.42;;
16612;SDS011;8419;52.358;9.752;2022-08-19T11:18:09;2.87;;;2.00;;
16612;SDS011;8419;52.358;9.752;2022-08-19T11:20:54;3.35;;;1.83;;
16612;SDS011;8419;52.358;9.752;2022-08-19T11:23:51;2.47;;;2.00;;
16612;SDS011;8419;52.358;9.752;2022-08-19T11:26:39;1.25;;;1.05;;
16612;SDS011;8419;52.358;9.752;2022-08-19T11:29:26;5.03;;;1.80;;
16612;SDS011;8419;52.358;9.752;2022-08-19T11:32:13;1.55;;;1.12;;
16612;SDS011;8419;52.358;9.752;2022-08-19T11:34:59;2.50;;;1.67;;
16612;SDS011;8419;52.358;9.752;2022-08-19T11:37:45;3.35;;;1.77;;
16612;SDS011;8419;52.358;9.752;2022-08-19T11:40:31;4.00;;;1.80;;
16612;SDS011;8419;52.358;9.752;2022-08-19T11:43:17;1.98;;;1.48;;
16612;SDS011;8419;52.358;9.752;2022-08-19T11:46:04;5.10;;;2.00;;
16612;SDS011;8419;52.358;9.752;2022-08-19T11:48:51;1.70;;;0.90;;
16612;SDS011;8419;52.358;9.752;2022-08-19T11:51:38;4.12;;;1.77;;
16612;SDS011;8419;52.358;9.752;2022-08-19T11:54:24;3.78;;;1.67;;
16612;SDS011;8419;52.358;9.752;2022-08-19T11:57:09;3.05;;;1.67;;
16612;SDS011;8419;52.358;9.752;2022-08-19T11:59:55;1.60;;;1.50;;
16612;SDS011;8419;52.358;9.752;2022-08-19T12:02:42;5.62;;;2.10;;
16612;SDS011;8419;52.358;9.752;2022-08-19T12:05:27;2.55;;;1.70;;
16612;SDS011;8419;52.358;9.752;2022-08-19T12:08:13;3.37;;;1.80;;
16612;SDS011;8419;52.358;9.752;2022-08-19T12:10:59;1.65;;;1.55;;
16612;SDS011;8419;52.358;9.752;2022-08-19T12:13:45;3.35;;;1.62;;
16612;SDS011;8419;52.358;9.752;2022-08-19T12:16:32;2.05;;;1.50;;
16612;SDS011;8419;52.358;9.752;2022-08-19T12:19:18;2.22;;;1.62;;
16612;SDS011;8419;52.358;9.752;2022-08-19T12:22:04;3.47;;;1.95;;
16612;SDS011;8419;52.358;9.752;2022-08-19T12:24:51;2.03;;;1.90;;
16612;SDS011;8419;52.358;9.752;2022-08-19T12:27:37;3.05;;;1.80;;
16612;SDS011;8419;52.358;9.752;2022-08-19T12:30:25;3.83;;;1.85;;
16612;SDS011;8419;52.358;9.752;2022-08-19T12:33:11;1.98;;;1.60;;
16612;SDS011;8419;52.358;9.752;2022-08-19T12:36:00;6.12;;;1.70;;
16612;SDS011;8419;52.358;9.752;2022-08-19T12:38:47;1.92;;;1.73;;
16612;SDS011;8419;52.358;9.752;2022-08-19T12:41:33;3.90;;;1.80;;
16612;SDS011;8419;52.358;9.752;2022-08-19T12:44:19;2.50;;;1.50;;
16612;SDS011;8419;52.358;9.752;2022-08-19T12:47:05;2.70;;;1.52;;
16612;SDS011;8419;52.358;9.752;2022-08-19T12:49:53;1.50;;;1.40;;
16612;SDS011;8419;52.358;9.752;2022-08-19T12:52:38;2.65;;;1.65;;
16612;SDS011;8419;52.358;9.752;2022-08-19T12:55:26;2.53;;;1.17;;
16612;SDS011;8419;52.358;9.752;2022-08-19T12:58:12;2.97;;;2.22;;
16612;SDS011;8419;52.358;9.752;2022-08-19T13:00:57;2.20;;;1.67;;
16612;SDS011;8419;52.358;9.752;2022-08-19T13:03:44;1.30;;;1.20;;
16612;SDS011;8419;52.358;9.752;2022-08-19T13:06:31;2.00;;;1.30;;
16612;SDS011;8419;52.358;9.752;2022-08-19T13:09:18;1.98;;;1.52;;
16612;SDS011;8419;52.358;9.752;2022-08-19T13:12:04;2.00;;;1.55;;
16612;SDS011;8419;52.358;9.752;2022-08-19T13:14:51;1.87;;;1.30;;
16612;SDS011;8419;52.358;9.752;2022-08-19T13:17:38;2.60;;;1.67;;
16612;SDS011;8419;52.358;9.752;2022-08-19T13:20:24;1.52;;;1.42;;
16612;SDS011;8419;52.358;9.752;2022-08-19T13:23:10;1.92;;;1.62;;
16612;SDS011;8419;52.358;9.752;2022-08-19T13:25:56;1.67;;;1.50;;
16612;SDS011;8419;52.358;9.752;2022-08-19T13:28:42;3.30;;;1.58;;
16612;SDS011;8419;52.358;9.752;2022-08-19T13:31:47;2.03;;;1.45;;
16612;SDS011;8419;52.358;9.752;2022-08-19T13:34:52;1.83;;;1.37;;
16612;SDS011;8419;52.358;9.752;2022-08-19T13:37:38;2.08;;;1.35;;
16612;SDS011;8419;52.358;9.752;2022-08-19T13:40:26;1.50;;;1.40;;
16612;SDS011;8419;52.358;9.752;2022-08-19T13:43:13;3.83;;;1.42;;
16612;SDS011;8419;52.358;9.752;2022-08-19T13:46:07;4.93;;;1.30;;
16612;SDS011;8419;52.358;9.752;2022-08-19T13:48:58;2.67;;;1.67;;
16612;SDS011;8419;52.358;9.752;2022-08-19T13:51:43;2.97;;;1.73;;
16612;SDS011;8419;52.358;9.752;2022-08-19T13:54:29;1.20;;;1.10;;
16612;SDS011;8419;52.358;9.752;2022-08-19T13:57:14;2.22;;;1.20;;
16612;SDS011;8419;52.358;9.752;2022-08-19T14:00:00;1.87;;;1.30;;
16612;SDS011;8419;52.358;9.752;2022-08-19T14:02:49;2.83;;;1.50;;
16612;SDS011;8419;52.358;9.752;2022-08-19T14:05:35;1.30;;;1.20;;
16612;SDS011;8419;52.358;9.752;2022-08-19T14:08:22;2.58;;;1.25;;
16612;SDS011;8419;52.358;9.752;2022-08-19T14:11:08;1.30;;;1.02;;
16612;SDS011;8419;52.358;9.752;2022-08-19T14:13:56;2.12;;;1.35;;
16612;SDS011;8419;52.358;9.752;2022-08-19T14:16:41;2.85;;;1.50;;
16612;SDS011;8419;52.358;9.752;2022-08-19T14:19:27;2.40;;;1.60;;
16612;SDS011;8419;52.358;9.752;2022-08-19T14:22:12;4.10;;;1.62;;
16612;SDS011;8419;52.358;9.752;2022-08-19T14:24:58;1.77;;;1.67;;
16612;SDS011;8419;52.358;9.752;2022-08-19T14:27:44;2.33;;;1.90;;
16612;SDS011;8419;52.358;9.752;2022-08-19T14:30:31;2.33;;;1.52;;
16612;SDS011;8419;52.358;9.752;2022-08-19T14:33:18;2.10;;;1.30;;
16612;SDS011;8419;52.358;9.752;2022-08-19T14:36:04;1.23;;;0.98;;
16612;SDS011;8419;52.358;9.752;2022-08-19T14:38:50;1.35;;;1.00;;
16612;SDS011;8419;52.358;9.752;2022-08-19T14:41:36;1.40;;;1.23;;
16612;SDS011;8419;52.358;9.752;2022-08-19T14:44:25;3.20;;;1.85;;
16612;SDS011;8419;52.358;9.752;2022-08-19T14:47:10;1.83;;;1.60;;
16612;SDS011;8419;52.358;9.752;2022-08-19T14:49:56;2.00;;;1.80;;
16612;SDS011;8419;52.358;9.752;2022-08-19T14:52:42;3.05;;;1.65;;
16612;SDS011;8419;52.358;9.752;2022-08-19T14:55:28;1.87;;;1.10;;
16612;SDS011;8419;52.358;9.752;2022-08-19T14:58:15;4.62;;;1.65;;
16612;SDS011;8419;52.358;9.752;2022-08-19T15:01:01;3.08;;;1.60;;
16612;SDS011;8419;52.358;9.752;2022-08-19T15:03:47;1.17;;;1.08;;
16612;SDS011;8419;52.358;9.752;2022-08-19T15:06:34;2.05;;;1.37;;
16612;SDS011;8419;52.358;9.752;2022-08-19T15:09:20;2.40;;;1.40;;
16612;SDS011;8419;52.358;9.752;2022-08-19T15:12:06;2.78;;;1.62;;
16612;SDS011;8419;52.358;9.752;2022-08-19T15:14:52;1.90;;;1.50;;
16612;SDS011;8419;52.358;9.752;2022-08-19T15:17:39;2.25;;;1.90;;
16612;SDS011;8419;52.358;9.752;2022-08-19T15:20:24;3.83;;;1.70;;
16612;SDS011;8419;52.358;9.752;2022-08-19T15:23:10;5.37;;;1.52;;
16612;SDS011;8419;52.358;9.752;2022-08-19T15:25:56;2.15;;;1.60;;
16612;SDS011;8419;52.358;9.752;2022-08-19T15:28:42;2.05;;;1.80;;
16612;SDS011;8419;52.358;9.752;2022-08-19T15:31:28;2.10;;;1.40;;
16612;SDS011;8419;52.358;9.752;2022-08-19T15:34:16;2.05;;;1.52;;
16612;SDS011;8419;52.358;9.752;2022-08-19T15:37:01;4.78;;;1.50;;
16612;SDS011;8419;52.358;9.752;2022-08-19T15:39:49;1.85;;;1.45;;
16612;SDS011;8419;52.358;9.752;2022-08-19T15:42:35;2.62;;;1.48;;
16612;SDS011;8419;52.358;9.752;2022-08-19T15:45:21;5.80;;;1.55;;
16612;SDS011;8419;52.358;9.752;2022-08-19T15:48:07;2.42;;;1.45;;
16612;SDS011;8419;52.358;9.752;2022-08-19T15:50:53;1.65;;;1.30;;
16612;SDS011;8419;52.358;9.752;2022-08-19T15:53:39;1.50;;;1.40;;
16612;SDS011;8419;52.358;9.752;2022-08-19T15:56:25;1.75;;;1.60;;
16612;SDS011;8419;52.358;9.752;2022-08-19T16:04:12;2.97;;;1.77;;
16612;SDS011;8419;52.358;9.752;2022-08-19T16:07:17;4.03;;;1.50;;
16612;SDS011;8419;52.358;9.752;2022-08-19T16:10:03;2.65;;;1.90;;
16612;SDS011;8419;52.358;9.752;2022-08-19T16:12:50;2.12;;;1.55;;
16612;SDS011;8419;52.358;9.752;2022-08-19T16:15:35;2.10;;;1.12;;
16612;SDS011;8419;52.358;9.752;2022-08-19T16:18:21;2.78;;;1.50;;
16612;SDS011;8419;52.358;9.752;2022-08-19T16:21:08;2.05;;;1.50;;
16612;SDS011;8419;52.358;9.752;2022-08-19T16:23:53;2.03;;;1.17;;
16612;SDS011;8419;52.358;9.752;2022-08-19T16:26:40;2.28;;;1.50;;
16612;SDS011;8419;52.358;9.752;2022-08-19T16:29:27;2.62;;;1.58;;
16612;SDS011;8419;52.358;9.752;2022-08-19T16:32:15;1.58;;;1.40;;
16612;SDS011;8419;52.358;9.752;2022-08-19T16:35:02;2.80;;;1.40;;
16612;SDS011;8419;52.358;9.752;2022-08-19T16:37:48;4.37;;;1.50;;
16612;SDS011;8419;52.358;9.752;2022-08-19T16:40:34;2.25;;;1.40;;
16612;SDS011;8419;52.358;9.752;2022-08-19T16:43:20;1.77;;;1.30;;
16612;SDS011;8419;52.358;9.752;2022-08-19T16:46:09;1.15;;;0.98;;
16612;SDS011;8419;52.358;9.752;2022-08-19T16:48:55;1.27;;;1.12;;
16612;SDS011;8419;52.358;9.752;2022-08-19T16:51:40;1.90;;;1.70;;
16612;SDS011;8419;52.358;9.752;2022-08-19T16:54:30;1.45;;;1.35;;
16612;SDS011;8419;52.358;9.752;2022-08-19T16:57:16;5.15;;;1.62;;
16612;SDS011;8419;52.358;9.752;2022-08-19T17:00:03;2.62;;;1.50;;
16612;SDS011;8419;52.358;9.752;2022-08-19T17:02:53;2.97;;;1.30;;
16612;SDS011;8419;52.358;9.752;2022-08-19T17:05:41;3.90;;;1.20;;